Time;durP1;ratioP1;P1;durP2;ratioP2;P2;SDS_P1;SDS_P2;PMS_P1;PMS_P2;Temp;Humidity;BMP_temperature;BMP_pressure;BME280_temperature;BME280_humidity;BME280_pressure;Samples;Min_cycle;Max_cycle;Signal;HPM_P1;HPM_P2
2022/10/08 00:08:56;;;;;;;48.60;27.40;;;;;;;13.39;92.91;100568.40;639559;1297;139421;-82
2022/10/08 00:24:03;;;;;;;48.00;26.80;;;;;;;13.63;93.96;100544.55;640226;1294;139583;-82
2022/10/08 00:39:14;;;;;;;87.40;41.60;;;;;;;13.72;96.18;100529.22;640409;1304;139154;-83
2022/10/08 00:54:20;;;;;;;70.20;34.80;;;;;;;13.88;97.15;100503.96;640788;1306;140511;-82
2022/10/08 01:09:32;;;;;;;29.50;19.00;;;;;;;14.12;99.18;100485.77;641069;1303;139500;-83
2022/10/08 01:33:58;;;;;;;56.00;30.80;;;;;;;14.35;100.00;100459.20;623548;1344;910729;-83
2022/10/08 01:49:07;;;;;;;32.90;20.50;;;;;;;14.40;100.00;100448.50;633495;1307;140267;-83
2022/10/08 02:19:42;;;;;;;35.10;22.00;;;;;;;14.57;100.00;100424.60;640855;1297;139532;-82
2022/10/08 02:34:54;;;;;;;27.00;18.00;;;;;;;14.73;100.00;100415.06;640734;1291;140436;-82
2022/10/08 02:50:07;;;;;;;31.30;17.50;;;;;;;14.81;100.00;100404.60;638951;1312;140348;-82
2022/10/08 03:05:16;;;;;;;44.60;28.80;;;;;;;14.83;100.00;100404.56;639587;1298;138659;-82
2022/10/08 03:20:20;;;;;;;31.50;21.10;;;;;;;14.64;100.00;100405.48;639610;1297;139322;-82
2022/10/08 03:35:23;;;;;;;29.10;19.60;;;;;;;14.43;100.00;100401.05;639497;1287;139367;-82
2022/10/08 03:50:26;;;;;;;36.10;24.10;;;;;;;14.30;100.00;100394.81;639167;1304;140438;-81
2022/10/08 04:05:29;;;;;;;44.40;30.30;;;;;;;14.19;100.00;100386.95;639647;1289;140862;-81
2022/10/08 04:20:33;;;;;;;30.50;19.50;;;;;;;13.99;100.00;100389.63;640324;1291;139713;-81
2022/10/08 04:35:37;;;;;;;33.50;20.30;;;;;;;13.74;100.00;100389.70;640632;1291;139426;-81
2022/10/08 04:50:39;;;;;;;37.10;23.40;;;;;;;13.55;100.00;100384.22;640733;1297;140095;-81
2022/10/08 05:05:44;;;;;;;38.00;23.50;;;;;;;13.43;100.00;100379.55;640274;1299;139632;-82
2022/10/08 05:20:48;;;;;;;42.30;24.30;;;;;;;13.35;100.00;100390.70;640110;1296;141196;-82
2022/10/08 05:35:51;;;;;;;45.80;26.90;;;;;;;13.31;100.00;100383.67;640104;1298;140141;-82
2022/10/08 05:50:54;;;;;;;39.20;23.20;;;;;;;13.20;100.00;100384.41;639348;1298;139254;-82
2022/10/08 06:06:03;;;;;;;44.90;26.10;;;;;;;13.61;100.00;100388.18;638005;1299;139270;-82
2022/10/08 06:21:10;;;;;;;41.20;23.40;;;;;;;14.22;100.00;100400.56;638524;1313;140584;-82
2022/10/08 06:36:16;;;;;;;44.20;25.40;;;;;;;14.54;100.00;100403.80;639321;1289;140588;-82
2022/10/08 06:51:19;;;;;;;35.80;23.30;;;;;;;15.45;100.00;100399.05;638619;1290;139535;-82
2022/10/08 07:06:23;;;;;;;32.40;21.50;;;;;;;16.61;100.00;100395.30;639812;1307;139962;-82
2022/10/08 07:21:28;;;;;;;33.80;21.20;;;;;;;17.02;100.00;100407.24;638747;1293;140199;-83
2022/10/08 07:36:32;;;;;;;27.80;19.20;;;;;;;17.78;100.00;100412.99;639928;1299;141533;-83
2022/10/08 07:51:35;;;;;;;23.20;14.90;;;;;;;18.47;98.74;100403.55;639961;1289;139469;-84
2022/10/08 08:06:41;;;;;;;23.70;13.70;;;;;;;19.51;94.10;100394.16;639198;1305;141705;-83
2022/10/08 08:21:44;;;;;;;24.90;13.90;;;;;;;20.12;90.08;100395.56;638945;1304;140801;-84
2022/10/08 08:36:49;;;;;;;15.30;9.10;;;;;;;20.09;84.16;100383.30;639527;1300;139739;-82
2022/10/08 08:51:56;;;;;;;16.00;9.00;;;;;;;20.40;79.47;100373.25;640108;1298;139299;-83
2022/10/08 09:07:05;;;;;;;10.60;5.90;;;;;;;20.49;73.15;100370.06;640851;1298;138475;-83
2022/10/08 09:22:31;;;;;;;10.40;6.50;;;;;;;19.82;69.78;100373.02;638951;1303;140043;-82
2022/10/08 09:37:34;;;;;;;12.10;7.30;;;;;;;20.13;68.58;100372.42;638730;1309;138391;-83
2022/10/08 09:52:39;;;;;;;17.30;8.30;;;;;;;20.00;68.96;100352.55;639240;1298;138534;-83
2022/10/08 10:07:44;;;;;;;10.40;7.10;;;;;;;20.79;69.01;100328.35;639145;1291;139250;-82
2022/10/08 10:23:20;;;;;;;11.30;7.90;;;;;;;21.21;67.62;100330.48;641530;1289;139670;-83
2022/10/08 10:38:26;;;;;;;12.30;8.20;;;;;;;21.82;69.03;100313.65;638806;1293;139323;-83
2022/10/08 10:53:43;;;;;;;16.90;9.60;;;;;;;21.96;69.02;100292.55;638636;1302;140534;-83
2022/10/08 11:09:01;;;;;;;13.10;9.80;;;;;;;21.96;70.57;100279.80;642173;1313;139855;-82
2022/10/08 11:24:07;;;;;;;20.70;14.80;;;;;;;21.27;74.01;100264.13;641761;1297;138819;-83
2022/10/08 11:39:16;;;;;;;20.50;7.80;;;;;;;20.96;74.22;100255.98;639728;1298;140111;-84
2022/10/08 11:54:37;;;;;;;13.60;8.20;;;;;;;20.56;76.50;100245.95;640634;1290;138145;-83
2022/10/08 12:10:06;;;;;;;12.70;8.10;;;;;;;20.45;79.18;100230.73;641156;1304;139779;-84
2022/10/08 12:25:37;;;;;;;16.10;9.90;;;;;;;20.75;80.54;100224.05;640364;1297;138732;-83
2022/10/08 12:41:05;;;;;;;15.10;8.00;;;;;;;20.85;79.06;100219.78;639705;1310;139498;-84
2022/10/08 12:56:14;;;;;;;11.50;8.30;;;;;;;20.68;79.10;100215.94;640059;1312;139654;-83
2022/10/08 13:11:17;;;;;;;;;;;;;;;20.26;80.31;100222.24;640819;1305;138910;-84
2022/10/08 13:26:38;;;;;;;21.80;11.20;;;;;;;20.11;80.88;100225.39;640861;1298;125604;-83
2022/10/08 13:41:49;;;;;;;22.30;12.00;;;;;;;19.86;81.90;100225.45;640637;1297;1259437;-83
2022/10/08 13:56:55;;;;;;;15.60;9.50;;;;;;;19.49;82.71;100228.37;640386;1301;141941;-83
2022/10/08 14:12:03;;;;;;;20.70;11.40;;;;;;;19.11;83.10;100236.57;640222;1300;139162;-83
2022/10/08 14:27:07;;;;;;;20.20;11.90;;;;;;;18.76;83.75;100245.09;640530;1313;139275;-83
2022/10/08 14:42:10;;;;;;;163.70;85.70;;;;;;;18.64;81.03;100246.81;660472;1298;139603;-84
2022/10/08 14:57:14;;;;;;;25.70;12.60;;;;;;;18.54;79.05;100241.74;647833;1301;139624;-83
2022/10/08 15:12:17;;;;;;;26.40;12.80;;;;;;;18.21;79.06;100243.57;643989;1298;138900;-82
2022/10/08 15:27:20;;;;;;;21.70;10.30;;;;;;;17.94;78.15;100259.59;644394;1305;139350;-83
2022/10/08 15:42:24;;;;;;;27.30;12.70;;;;;;;17.72;77.01;100270.27;643551;1307;139091;-83
2022/10/08 15:57:29;;;;;;;37.50;19.00;;;;;;;18.23;75.54;100278.70;643260;1297;140730;-83
2022/10/08 16:12:32;;;;;;;25.30;12.10;;;;;;;17.40;76.75;100292.05;642820;1302;139665;-82
2022/10/08 16:27:36;;;;;;;24.80;11.50;;;;;;;16.84;78.54;100297.30;642269;1311;139062;-83
2022/10/08 16:42:39;;;;;;;26.50;12.30;;;;;;;16.42;80.03;100316.48;641819;1294;139885;-83
2022/10/08 16:57:42;;;;;;;49.50;19.70;;;;;;;16.15;81.11;100327.94;641846;1303;139233;-83
2022/10/08 17:12:46;;;;;;;29.60;15.00;;;;;;;15.94;81.48;100332.89;642484;1302;140191;-84
2022/10/08 17:27:50;;;;;;;27.00;14.10;;;;;;;15.81;81.72;100341.99;641256;1304;138878;-83
2022/10/08 17:42:53;;;;;;;52.50;23.90;;;;;;;15.67;82.49;100350.55;642108;1302;140700;-84
2022/10/08 17:57:56;;;;;;;25.90;13.10;;;;;;;15.47;83.77;100355.89;642280;1306;139804;-83
2022/10/08 18:13:01;;;;;;;198.20;106.20;;;;;;;15.31;84.65;100365.90;640573;1291;140727;-83
2022/10/08 18:28:06;;;;;;;22.40;10.70;;;;;;;15.18;86.83;100392.74;641780;1294;141061;-82
2022/10/08 18:43:09;;;;;;;37.60;17.50;;;;;;;15.15;90.18;100402.84;642791;1294;140026;-83
2022/10/08 18:58:13;;;;;;;30.60;13.60;;;;;;;15.14;93.05;100426.00;640697;1298;138920;-83
2022/10/08 19:13:18;;;;;;;33.80;15.70;;;;;;;14.99;97.32;100446.75;640617;1312;138905;-83
2022/10/08 19:28:22;;;;;;;28.80;13.80;;;;;;;14.81;99.92;100468.80;639456;1297;140222;-83
2022/10/08 19:43:26;;;;;;;32.10;12.90;;;;;;;14.76;100.00;100494.04;640358;1305;138938;-83
2022/10/08 19:58:29;;;;;;;20.60;11.90;;;;;;;14.58;100.00;100504.98;639673;1290;140294;-82
2022/10/08 20:13:34;;;;;;;16.60;10.40;;;;;;;14.42;100.00;100519.25;639306;1304;140739;-83
2022/10/08 20:28:37;;;;;;;23.40;10.40;;;;;;;14.31;100.00;100525.05;638900;1305;140740;-83
2022/10/08 20:43:41;;;;;;;26.10;12.50;;;;;;;14.18;100.00;100534.94;638509;1303;139063;-83
2022/10/08 20:58:45;;;;;;;23.50;10.80;;;;;;;14.09;100.00;100549.90;640425;1298;139088;-84
2022/10/08 21:13:49;;;;;;;15.30;7.70;;;;;;;14.04;100.00;100559.77;639488;1310;139060;-84
2022/10/08 21:28:56;;;;;;;20.70;8.90;;;;;;;13.98;100.00;100569.48;639748;1307;140729;-84
2022/10/08 21:44:04;;;;;;;14.10;7.20;;;;;;;13.85;100.00;100574.60;639258;1313;139189;-84
2022/10/08 21:59:11;;;;;;;16.60;7.70;;;;;;;13.58;100.00;100584.20;640138;1312;139723;-84
2022/10/08 22:14:15;;;;;;;13.90;6.90;;;;;;;13.33;100.00;100600.39;640105;1310;139208;-84
2022/10/08 22:29:18;;;;;;;19.50;7.80;;;;;;;13.14;100.00;100602.71;639829;1312;139337;-84
2022/10/08 22:44:21;;;;;;;12.00;6.80;;;;;;;12.95;100.00;100611.36;639058;1313;139320;-85
2022/10/08 22:59:25;;;;;;;12.20;7.60;;;;;;;12.75;100.00;100624.20;639409;1313;138835;-82
2022/10/08 23:14:28;;;;;;;18.10;8.80;;;;;;;12.59;100.00;100645.86;640336;1291;139998;-81
2022/10/08 23:29:31;;;;;;;14.80;7.70;;;;;;;12.46;100.00;100659.16;639883;1307;138905;-83
2022/10/08 23:44:34;;;;;;;11.60;5.40;;;;;;;12.32;100.00;100675.98;639418;1310;139685;-81
2022/10/08 23:59:38;;;;;;;11.50;5.70;;;;;;;12.10;100.00;100687.95;638958;1311;140385;-82
